createdAt,value
2018-06-25T00:00:06.285Z,12.97
2018-06-25T00:02:34.773Z,12.47
2018-06-25T00:05:03.355Z,11.90
2018-06-25T00:07:31.837Z,10.93
2018-06-25T00:10:00.400Z,12.10
2018-06-25T00:12:29.216Z,12.87
2018-06-25T00:14:57.666Z,12.20
2018-06-25T00:17:26.711Z,13.53
2018-06-25T00:19:55.327Z,12.27
2018-06-25T00:22:23.887Z,13.10
2018-06-25T00:24:52.433Z,12.63
2018-06-25T00:27:20.902Z,12.97
2018-06-25T00:29:49.492Z,10.30
2018-06-25T00:32:18.152Z,9.67
2018-06-25T00:34:46.671Z,10.40
2018-06-25T00:37:15.583Z,9.40
2018-06-25T00:39:44.312Z,9.30
2018-06-25T00:42:12.813Z,9.10
2018-06-25T00:44:41.568Z,8.97
2018-06-25T00:47:10.041Z,8.47
2018-06-25T00:49:38.491Z,8.60
2018-06-25T00:52:07.165Z,8.90
2018-06-25T00:54:35.576Z,8.80
2018-06-25T00:57:04.083Z,9.03
2018-06-25T00:59:43.795Z,9.07
2018-06-25T01:02:11.932Z,8.63
2018-06-25T01:04:40.392Z,9.37
2018-06-25T01:07:08.912Z,9.43
2018-06-25T01:09:37.356Z,8.87
2018-06-25T01:12:05.928Z,9.50
2018-06-25T01:14:34.750Z,8.93
2018-06-25T01:17:03.422Z,9.27
2018-06-25T01:19:33.078Z,9.27
2018-06-25T01:22:01.560Z,9.77
2018-06-25T01:24:30.022Z,9.47
2018-06-25T01:26:58.502Z,9.63
2018-06-25T01:29:27.361Z,9.50
2018-06-25T01:31:56.252Z,9.27
2018-06-25T01:34:25.062Z,9.80
2018-06-25T01:36:53.853Z,8.33
2018-06-25T01:39:22.734Z,9.37
2018-06-25T01:41:51.612Z,9.53
2018-06-25T01:44:20.063Z,8.40
2018-06-25T01:46:49.420Z,9.60
2018-06-25T01:49:18.223Z,9.73
2018-06-25T01:51:48.291Z,9.93
2018-06-25T01:54:16.744Z,10.37
2018-06-25T01:56:45.605Z,9.40
2018-06-25T01:59:13.794Z,8.77
2018-06-25T02:01:41.895Z,9.23
2018-06-25T02:04:10.424Z,9.27
2018-06-25T02:06:38.963Z,9.87
2018-06-25T02:09:09.652Z,8.73
2018-06-25T02:11:38.406Z,9.00
2018-06-25T02:14:06.910Z,8.97
2018-06-25T02:16:35.506Z,9.17
2018-06-25T02:19:04.342Z,8.77
2018-06-25T02:21:32.854Z,9.03
2018-06-25T02:24:01.312Z,9.17
2018-06-25T02:26:29.750Z,10.10
2018-06-25T02:28:58.309Z,9.53
2018-06-25T02:31:26.809Z,10.37
2018-06-25T02:33:56.009Z,8.93
2018-06-25T02:36:24.567Z,8.63
2018-06-25T02:38:53.085Z,10.70
2018-06-25T02:41:21.736Z,13.47
2018-06-25T02:43:50.382Z,11.90
2018-06-25T02:46:18.866Z,12.70
2018-06-25T02:48:47.384Z,13.40
2018-06-25T02:51:16.036Z,14.67
2018-06-25T02:53:44.572Z,14.60
2018-06-25T02:56:13.068Z,15.57
2018-06-25T02:58:41.553Z,13.10
2018-06-25T03:01:10.251Z,14.20
2018-06-25T03:03:39.631Z,14.33
2018-06-25T03:06:08.171Z,13.77
2018-06-25T03:08:36.665Z,14.47
2018-06-25T03:11:05.216Z,14.50
2018-06-25T03:13:33.994Z,17.33
2018-06-25T03:16:02.488Z,14.53
2018-06-25T03:18:32.077Z,17.40
2018-06-25T03:21:00.711Z,14.77
2018-06-25T03:23:29.534Z,13.80
2018-06-25T03:25:58.055Z,13.80
2018-06-25T03:28:26.184Z,15.63
2018-06-25T03:30:54.695Z,13.50
2018-06-25T03:33:23.093Z,13.40
2018-06-25T03:35:51.637Z,17.33
2018-06-25T03:38:20.110Z,15.47
2018-06-25T03:40:48.916Z,16.57
2018-06-25T03:43:17.350Z,14.50
2018-06-25T03:45:45.772Z,15.17
2018-06-25T03:48:14.324Z,16.23
2018-06-25T03:50:43.033Z,17.10
2018-06-25T03:53:11.579Z,15.97
2018-06-25T03:55:40.041Z,15.17
2018-06-25T03:58:08.504Z,16.10
2018-06-25T04:00:36.964Z,18.27
2018-06-25T04:03:05.543Z,17.27
2018-06-25T04:05:34.024Z,18.10
2018-06-25T04:08:02.612Z,17.33
2018-06-25T04:10:31.648Z,16.93
2018-06-25T04:13:00.125Z,16.40
2018-06-25T04:15:28.771Z,16.00
2018-06-25T04:17:57.601Z,16.20
2018-06-25T04:20:26.062Z,14.60
2018-06-25T04:22:55.443Z,14.80
2018-06-25T04:25:23.942Z,16.03
2018-06-25T04:27:52.637Z,14.60
2018-06-25T04:30:21.095Z,14.43
2018-06-25T04:32:49.788Z,17.07
2018-06-25T04:35:18.501Z,17.17
2018-06-25T04:37:47.387Z,14.77
2018-06-25T04:40:15.977Z,15.80
2018-06-25T04:42:44.395Z,14.13
2018-06-25T04:45:12.874Z,15.90
2018-06-25T04:47:41.708Z,13.83
2018-06-25T04:50:10.417Z,14.47
2018-06-25T04:52:38.980Z,14.70
2018-06-25T04:55:07.974Z,14.60
2018-06-25T04:57:36.534Z,14.57
2018-06-25T05:00:05.451Z,14.37
2018-06-25T05:02:34.013Z,13.67
2018-06-25T05:05:02.637Z,13.60
2018-06-25T05:07:31.165Z,13.40
2018-06-25T05:09:59.696Z,12.80
2018-06-25T05:12:28.192Z,13.73
2018-06-25T05:14:56.655Z,15.10
2018-06-25T05:17:25.221Z,14.80
2018-06-25T05:19:53.886Z,16.33
2018-06-25T05:22:22.684Z,14.80
2018-06-25T05:24:51.216Z,14.60
2018-06-25T05:27:19.741Z,14.70
2018-06-25T05:29:48.202Z,15.13
2018-06-25T05:32:16.880Z,14.50
2018-06-25T05:34:45.496Z,14.70
2018-06-25T05:37:14.032Z,14.50
2018-06-25T05:39:42.705Z,15.30
2018-06-25T05:42:15.396Z,13.40
2018-06-25T05:44:43.943Z,14.20
2018-06-25T05:47:12.584Z,14.70
2018-06-25T05:49:41.007Z,12.33
2018-06-25T05:52:09.466Z,14.67
2018-06-25T05:54:38.021Z,14.27
2018-06-25T05:57:06.641Z,12.10
2018-06-25T05:59:35.723Z,13.07
2018-06-25T06:02:04.520Z,13.97
2018-06-25T06:04:33.053Z,12.67
2018-06-25T06:07:02.081Z,12.87
2018-06-25T06:09:30.582Z,12.47
2018-06-25T06:11:59.056Z,10.27
2018-06-25T06:14:27.805Z,10.17
2018-06-25T06:16:56.391Z,10.47
2018-06-25T06:19:25.181Z,9.83
2018-06-25T06:21:53.804Z,8.10
2018-06-25T06:24:22.658Z,8.20
2018-06-25T06:26:51.382Z,9.33
2018-06-25T06:29:19.897Z,7.40
2018-06-25T06:31:48.411Z,8.27
2018-06-25T06:34:16.880Z,7.90
2018-06-25T06:36:45.630Z,8.87
2018-06-25T06:39:15.535Z,8.10
2018-06-25T06:41:45.419Z,10.10
2018-06-25T06:44:14.435Z,10.27
2018-06-25T06:46:43.119Z,8.57
2018-06-25T06:49:12.119Z,10.00
2018-06-25T06:51:40.786Z,10.70
2018-06-25T06:54:09.273Z,10.43
2018-06-25T06:56:37.922Z,9.70
2018-06-25T06:59:08.162Z,9.10
2018-06-25T07:01:36.640Z,8.90
2018-06-25T07:04:05.529Z,7.17
2018-06-25T07:06:34.225Z,8.37
2018-06-25T07:09:02.860Z,6.43
2018-06-25T07:11:32.227Z,7.40
2018-06-25T07:14:01.747Z,5.43
2018-06-25T07:16:30.368Z,5.70
2018-06-25T07:18:58.867Z,5.23
2018-06-25T07:21:27.685Z,4.30
2018-06-25T07:23:56.286Z,6.03
2018-06-25T07:26:25.688Z,6.60
2018-06-25T07:28:55.799Z,7.63
2018-06-25T07:31:24.513Z,7.03
2018-06-25T07:33:53.126Z,8.77
2018-06-25T07:36:22.576Z,7.37
2018-06-25T07:38:51.137Z,7.20
2018-06-25T07:41:19.590Z,6.10
2018-06-25T07:43:49.366Z,6.70
2018-06-25T07:46:18.179Z,6.80
2018-06-25T07:48:46.590Z,6.47
2018-06-25T07:51:15.074Z,6.80
2018-06-25T07:53:43.570Z,7.27
2018-06-25T07:56:12.099Z,6.70
2018-06-25T07:58:40.649Z,7.20
2018-06-25T08:01:09.432Z,5.80
2018-06-25T08:03:37.974Z,6.27
2018-06-25T08:06:06.570Z,7.90
2018-06-25T08:08:35.327Z,7.83
2018-06-25T08:11:03.957Z,7.10
2018-06-25T08:13:32.411Z,7.33
2018-06-25T08:16:01.013Z,6.93
2018-06-25T08:18:29.561Z,6.40
2018-06-25T08:20:58.073Z,7.73
2018-06-25T08:23:26.702Z,7.13
2018-06-25T08:25:55.255Z,6.60
2018-06-25T08:28:23.760Z,6.63
2018-06-25T08:30:52.316Z,6.47
2018-06-25T08:33:20.806Z,7.40
2018-06-25T08:35:50.212Z,7.67
2018-06-25T08:38:18.667Z,6.90
2018-06-25T08:40:47.111Z,6.60
2018-06-25T08:43:15.594Z,7.03
2018-06-25T08:45:44.193Z,7.03
2018-06-25T08:48:12.597Z,6.40
2018-06-25T08:50:41.104Z,7.40
2018-06-25T08:53:10.245Z,9.47
2018-06-25T08:55:38.761Z,9.20
2018-06-25T08:58:07.293Z,8.50
2018-06-25T09:00:35.874Z,7.97
2018-06-25T09:03:04.455Z,7.73
2018-06-25T09:05:32.889Z,8.60
2018-06-25T09:08:01.762Z,8.80
2018-06-25T09:10:30.504Z,10.60
2018-06-25T09:12:59.029Z,8.73
2018-06-25T09:15:28.823Z,8.07
2018-06-25T09:17:57.742Z,8.17
2018-06-25T09:20:26.852Z,8.00
2018-06-25T09:22:55.554Z,8.97
2018-06-25T09:25:24.191Z,8.83
2018-06-25T09:27:52.791Z,8.70
2018-06-25T09:30:21.668Z,7.40
2018-06-25T09:32:51.081Z,7.97
2018-06-25T09:35:26.414Z,8.80
2018-06-25T09:37:55.301Z,7.50
2018-06-25T09:40:24.520Z,7.73
2018-06-25T09:42:53.152Z,8.97
2018-06-25T09:45:21.826Z,7.70
2018-06-25T09:47:50.396Z,8.13
2018-06-25T09:50:20.666Z,8.10
2018-06-25T09:52:49.218Z,7.20
2018-06-25T09:55:17.780Z,7.27
2018-06-25T09:57:46.319Z,6.47
2018-06-25T10:00:19.072Z,8.30
2018-06-25T10:02:56.472Z,7.33
2018-06-25T10:05:25.258Z,6.80
2018-06-25T10:07:53.821Z,6.80
2018-06-25T10:10:22.422Z,7.60
2018-06-25T10:12:51.723Z,6.23
2018-06-25T10:15:20.230Z,6.53
2018-06-25T10:17:48.849Z,7.10
2018-06-25T10:20:17.634Z,6.07
2018-06-25T10:22:46.175Z,6.07
2018-06-25T10:25:15.054Z,6.00
2018-06-25T10:27:44.085Z,6.20
2018-06-25T10:30:12.564Z,5.20
2018-06-25T10:32:41.158Z,5.37
2018-06-25T10:35:09.656Z,6.03
2018-06-25T10:37:38.270Z,6.40
2018-06-25T10:40:06.822Z,4.90
2018-06-25T10:42:35.454Z,5.90
2018-06-25T10:45:04.160Z,5.57
2018-06-25T10:47:32.831Z,5.43
2018-06-25T10:50:01.460Z,6.30
2018-06-25T10:52:30.377Z,5.63
2018-06-25T10:54:58.920Z,5.93
2018-06-25T10:57:27.443Z,5.93
2018-06-25T10:59:55.805Z,7.20
2018-06-25T11:02:24.052Z,6.80
2018-06-25T11:04:52.988Z,5.97
2018-06-25T11:07:22.562Z,7.17
2018-06-25T11:09:50.975Z,5.83
2018-06-25T11:12:19.401Z,5.40
2018-06-25T11:14:47.936Z,5.43
2018-06-25T11:17:16.379Z,5.80
2018-06-25T11:19:44.859Z,5.00
2018-06-25T11:22:13.810Z,5.97
2018-06-25T11:24:42.445Z,5.53
2018-06-25T11:27:11.169Z,6.27
2018-06-25T11:29:39.699Z,5.37
2018-06-25T11:32:08.247Z,5.60
2018-06-25T11:34:36.833Z,6.13
2018-06-25T11:37:05.393Z,6.07
2018-06-25T11:39:33.981Z,5.20
2018-06-25T11:42:02.872Z,5.93
2018-06-25T11:44:31.550Z,5.50
2018-06-25T11:47:00.050Z,5.83
2018-06-25T11:49:28.595Z,5.00
2018-06-25T11:51:57.086Z,5.80
2018-06-25T11:54:25.820Z,5.67
2018-06-25T11:56:54.310Z,5.90
2018-06-25T11:59:22.442Z,6.27
2018-06-25T12:01:52.866Z,5.73
2018-06-25T12:04:21.414Z,6.43
2018-06-25T12:06:49.924Z,6.43
2018-06-25T12:09:18.648Z,6.33
2018-06-25T12:11:47.205Z,5.93
2018-06-25T12:14:15.757Z,6.90
2018-06-25T12:16:44.141Z,7.63
2018-06-25T12:19:12.609Z,7.70
2018-06-25T12:21:41.168Z,6.83
2018-06-25T12:24:09.683Z,6.70
2018-06-25T12:39:37.738Z,8.10
2018-06-25T12:42:06.296Z,6.63
2018-06-25T12:44:35.421Z,6.37
2018-06-25T12:47:04.574Z,6.00
2018-06-25T12:49:33.182Z,7.23
2018-06-25T12:52:02.199Z,6.10
2018-06-25T12:54:30.825Z,6.40
2018-06-25T12:56:59.463Z,6.33
2018-06-25T12:59:28.019Z,5.97
2018-06-25T13:01:56.619Z,6.07
2018-06-25T13:04:25.358Z,6.53
2018-06-25T13:06:54.039Z,5.63
2018-06-25T13:09:22.553Z,5.70
2018-06-25T13:11:51.325Z,5.93
2018-06-25T13:14:20.032Z,6.63
2018-06-25T13:16:49.273Z,6.00
2018-06-25T13:19:17.802Z,6.97
2018-06-25T13:21:46.387Z,8.20
2018-06-25T13:24:14.979Z,7.37
2018-06-25T13:26:43.435Z,6.60
2018-06-25T13:29:12.229Z,7.33
2018-06-25T13:31:40.885Z,7.97
2018-06-25T13:34:09.511Z,6.93
2018-06-25T13:36:38.076Z,6.57
2018-06-25T13:39:08.584Z,6.57
2018-06-25T13:41:37.116Z,7.40
2018-06-25T13:44:06.137Z,6.77
2018-06-25T13:46:34.893Z,7.10
2018-06-25T13:49:03.545Z,6.83
2018-06-25T13:51:32.040Z,6.00
2018-06-25T13:54:00.598Z,6.33
2018-06-25T13:56:29.264Z,5.73
2018-06-25T13:58:57.749Z,6.07
2018-06-25T14:01:26.326Z,6.07
2018-06-25T14:03:54.777Z,6.93
2018-06-25T14:06:23.260Z,6.10
2018-06-25T14:08:51.737Z,6.57
2018-06-25T14:11:20.360Z,5.87
2018-06-25T14:13:48.869Z,7.10
2018-06-25T14:16:17.879Z,6.20
2018-06-25T14:18:46.462Z,6.80
2018-06-25T14:21:15.296Z,5.93
2018-06-25T14:23:49.122Z,5.87
2018-06-25T14:26:17.750Z,6.10
2018-06-25T14:28:46.305Z,6.93
2018-06-25T14:31:20.246Z,7.10
2018-06-25T14:33:56.777Z,7.37
2018-06-25T14:36:25.890Z,6.60
2018-06-25T14:38:54.631Z,6.80
2018-06-25T14:41:23.756Z,6.50
2018-06-25T14:43:52.412Z,6.97
2018-06-25T14:46:21.560Z,7.63
2018-06-25T14:48:50.054Z,7.70
2018-06-25T14:51:18.521Z,7.03
2018-06-25T14:53:47.052Z,7.43
2018-06-25T14:56:15.487Z,7.27
2018-06-25T14:58:44.052Z,7.17
2018-06-25T15:01:12.189Z,7.03
2018-06-25T15:03:40.711Z,6.70
2018-06-25T15:06:09.193Z,7.63
2018-06-25T15:08:38.292Z,7.90
2018-06-25T15:11:06.906Z,6.77
2018-06-25T15:13:35.489Z,7.03
2018-06-25T15:16:04.435Z,7.50
2018-06-25T15:18:33.581Z,6.77
2018-06-25T15:21:02.455Z,6.73
2018-06-25T15:23:31.060Z,6.70
2018-06-25T15:25:59.817Z,7.80
2018-06-25T15:28:28.260Z,7.00
2018-06-25T15:30:56.817Z,7.43
2018-06-25T15:33:25.320Z,7.37
2018-06-25T15:35:53.898Z,7.13
2018-06-25T15:38:22.441Z,7.23
2018-06-25T15:40:51.542Z,7.23
2018-06-25T15:43:20.077Z,7.97
2018-06-25T15:45:48.772Z,8.43
2018-06-25T15:48:17.341Z,7.90
2018-06-25T15:50:46.050Z,6.80
2018-06-25T15:53:14.562Z,7.67
2018-06-25T15:55:43.023Z,8.03
2018-06-25T15:58:11.552Z,7.10
2018-06-25T16:00:40.066Z,7.03
2018-06-25T16:03:12.772Z,6.27
2018-06-25T16:05:41.361Z,6.30
2018-06-25T16:08:09.939Z,7.13
2018-06-25T16:10:38.475Z,6.30
2018-06-25T16:13:07.531Z,6.90
2018-06-25T16:15:36.009Z,6.70
2018-06-25T16:18:04.589Z,5.80
2018-06-25T16:20:33.080Z,6.43
2018-06-25T16:23:01.572Z,6.97
2018-06-25T16:25:30.268Z,6.43
2018-06-25T16:27:58.844Z,7.33
2018-06-25T16:30:27.354Z,7.00
2018-06-25T16:32:56.273Z,8.70
2018-06-25T16:35:24.895Z,6.60
2018-06-25T16:37:53.421Z,6.93
2018-06-25T16:40:21.931Z,6.77
2018-06-25T16:42:50.409Z,5.23
2018-06-25T16:45:19.785Z,5.37
2018-06-25T16:47:48.270Z,5.57
2018-06-25T16:50:16.940Z,5.47
2018-06-25T16:52:45.665Z,6.10
2018-06-25T16:55:14.153Z,5.10
2018-06-25T16:57:42.785Z,5.97
2018-06-25T17:00:10.996Z,6.10
2018-06-25T17:02:39.815Z,5.20
2018-06-25T17:05:08.302Z,5.80
2018-06-25T17:07:36.784Z,5.23
2018-06-25T17:10:06.072Z,6.10
2018-06-25T17:12:34.701Z,6.17
2018-06-25T17:15:03.922Z,6.37
2018-06-25T17:17:35.004Z,6.53
2018-06-25T17:20:03.541Z,6.03
2018-06-25T17:22:32.076Z,5.20
2018-06-25T17:25:00.737Z,6.90
2018-06-25T17:27:29.259Z,6.43
2018-06-25T17:29:58.035Z,6.33
2018-06-25T17:32:26.611Z,6.40
2018-06-25T17:34:55.401Z,7.23
2018-06-25T17:37:24.670Z,6.33
2018-06-25T17:39:53.370Z,5.77
2018-06-25T17:42:22.536Z,5.60
2018-06-25T17:44:51.013Z,6.03
2018-06-25T17:47:20.424Z,6.07
2018-06-25T17:49:49.573Z,5.10
2018-06-25T17:52:18.068Z,4.97
2018-06-25T17:54:46.746Z,6.40
2018-06-25T17:57:15.304Z,6.00
2018-06-25T17:59:43.857Z,6.37
2018-06-25T18:02:12.589Z,5.60
2018-06-25T18:04:41.142Z,6.03
2018-06-25T18:07:09.641Z,5.20
2018-06-25T18:09:38.149Z,5.30
2018-06-25T18:12:06.713Z,5.80
2018-06-25T18:14:35.487Z,4.70
2018-06-25T18:17:04.300Z,5.90
2018-06-25T18:19:32.781Z,6.00
2018-06-25T18:22:02.654Z,5.70
2018-06-25T18:24:31.492Z,5.87
2018-06-25T18:27:00.061Z,5.27
2018-06-25T18:29:28.600Z,5.33
2018-06-25T18:31:57.242Z,5.40
2018-06-25T18:34:26.549Z,6.40
2018-06-25T18:36:55.020Z,5.17
2018-06-25T18:39:23.548Z,6.40
2018-06-25T18:41:51.996Z,5.43
2018-06-25T18:44:20.893Z,5.53
2018-06-25T18:46:49.732Z,6.40
2018-06-25T18:49:18.388Z,5.53
2018-06-25T18:51:47.124Z,6.20
2018-06-25T18:54:17.013Z,5.47
2018-06-25T18:56:45.307Z,6.50
2018-06-25T18:59:14.458Z,5.60
2018-06-25T19:01:44.250Z,5.10
2018-06-25T19:04:13.250Z,6.10
2018-06-25T19:06:42.399Z,5.83
2018-06-25T19:09:12.314Z,5.20
2018-06-25T19:11:42.572Z,5.90
2018-06-25T19:14:11.356Z,6.27
2018-06-25T19:16:40.599Z,6.10
2018-06-25T19:22:06.399Z,5.90
2018-06-25T19:24:38.026Z,6.73
2018-06-25T19:27:07.901Z,5.90
2018-06-25T19:29:39.282Z,5.50
2018-06-25T19:32:09.950Z,6.70
2018-06-25T19:34:39.599Z,6.20
2018-06-25T19:37:12.320Z,6.40
2018-06-25T19:39:47.679Z,6.43
2018-06-25T19:42:19.802Z,6.70
2018-06-25T19:44:48.861Z,7.30
2018-06-25T19:47:17.678Z,7.77
2018-06-25T19:49:46.712Z,7.23
2018-06-25T19:52:15.595Z,6.60
2018-06-25T19:54:45.933Z,6.97
2018-06-25T19:57:16.121Z,6.43
2018-06-25T19:59:46.857Z,6.03
2018-06-25T20:02:15.548Z,6.70
2018-06-25T20:04:46.348Z,7.67
2018-06-25T20:07:15.012Z,6.17
2018-06-25T20:09:47.372Z,6.70
2018-06-25T20:12:16.181Z,6.90
2018-06-25T20:14:45.046Z,6.50
2018-06-25T20:17:13.821Z,6.03
2018-06-25T20:19:42.539Z,6.10
2018-06-25T20:22:11.098Z,7.47
2018-06-25T20:24:39.600Z,6.47
2018-06-25T20:27:08.146Z,7.60
2018-06-25T20:29:36.812Z,7.37
2018-06-25T20:32:06.489Z,7.67
2018-06-25T20:34:35.150Z,7.43
2018-06-25T20:37:03.850Z,8.00
2018-06-25T20:39:32.422Z,8.40
2018-06-25T20:42:03.454Z,8.27
2018-06-25T20:44:32.490Z,7.40
2018-06-25T20:47:00.759Z,7.73
2018-06-25T20:49:29.630Z,8.83
2018-06-25T20:51:58.209Z,7.93
2018-06-25T20:54:26.779Z,8.40
2018-06-25T20:56:55.656Z,7.70
2018-06-25T20:59:24.175Z,8.20
2018-06-25T21:01:52.720Z,8.90
2018-06-25T21:04:21.314Z,8.00
2018-06-25T21:06:50.852Z,8.57
2018-06-25T21:09:19.670Z,8.60
2018-06-25T21:11:48.269Z,7.50
2018-06-25T21:14:18.033Z,9.87
2018-06-25T21:16:46.666Z,9.50
2018-06-25T21:19:17.761Z,8.73
2018-06-25T21:21:46.509Z,8.80
2018-06-25T21:26:48.446Z,13.67
2018-06-25T21:29:17.864Z,16.00
2018-06-25T21:31:46.466Z,15.93
2018-06-25T21:34:15.197Z,9.57
2018-06-25T21:36:44.060Z,9.50
2018-06-25T21:39:12.682Z,8.43
2018-06-25T21:41:41.289Z,10.53
2018-06-25T21:44:09.453Z,11.97
2018-06-25T21:46:37.730Z,10.67
2018-06-25T21:49:06.304Z,8.00
2018-06-25T21:51:35.055Z,8.37
2018-06-25T21:54:04.051Z,8.20
2018-06-25T21:56:33.929Z,7.37
2018-06-25T21:59:02.500Z,7.63
2018-06-25T22:01:32.424Z,7.37
2018-06-25T22:04:01.078Z,6.73
2018-06-25T22:06:29.661Z,7.23
2018-06-25T22:08:57.918Z,7.80
2018-06-25T22:11:26.479Z,7.33
2018-06-25T22:13:55.054Z,6.73
2018-06-25T22:16:23.521Z,5.90
2018-06-25T22:18:52.054Z,6.17
2018-06-25T22:21:20.669Z,7.50
2018-06-25T22:23:49.276Z,5.50
2018-06-25T22:26:19.035Z,6.57
2018-06-25T22:28:47.794Z,6.60
2018-06-25T22:31:16.582Z,6.83
2018-06-25T22:33:48.532Z,5.60
2018-06-25T22:36:17.253Z,6.50
2018-06-25T22:38:45.806Z,6.83
2018-06-25T22:41:14.628Z,6.70
2018-06-25T22:43:43.512Z,7.17
2018-06-25T22:46:12.165Z,6.60
2018-06-25T22:48:40.819Z,6.60
2018-06-25T22:51:09.630Z,7.50
2018-06-25T22:53:38.275Z,6.93
2018-06-25T22:56:06.796Z,7.57
2018-06-25T22:58:35.358Z,6.53
2018-06-25T23:01:04.073Z,6.73
2018-06-25T23:03:33.380Z,7.73
2018-06-25T23:06:04.147Z,7.27
2018-06-25T23:08:33.478Z,6.80
2018-06-25T23:11:04.391Z,7.07
2018-06-25T23:13:32.883Z,6.43
2018-06-25T23:16:01.392Z,5.90
2018-06-25T23:18:29.871Z,7.00
2018-06-25T23:20:59.466Z,7.13
2018-06-25T23:23:27.930Z,6.97
2018-06-25T23:25:56.440Z,7.10
2018-06-25T23:28:24.896Z,7.40
2018-06-25T23:30:53.384Z,8.03
2018-06-25T23:33:21.855Z,7.60
2018-06-25T23:35:50.334Z,7.63
2018-06-25T23:38:19.398Z,7.20
2018-06-25T23:40:47.860Z,7.40
2018-06-25T23:43:18.680Z,7.37
2018-06-25T23:45:47.153Z,7.33
2018-06-25T23:48:15.607Z,7.97
2018-06-25T23:50:44.098Z,7.60
2018-06-25T23:53:12.518Z,8.03
2018-06-25T23:55:41.021Z,9.10
2018-06-25T23:58:09.484Z,7.07
